sensor_id;sensor_type;location;lat;lon;timestamp;pressure;altitude;pressure_sealevel;temperature;humidity
50710;BME280;37033;49.994;21.992;2023-07-24T00:00:23;98817.31;;;19.69;58.14
50710;BME280;37033;49.994;21.992;2023-07-24T00:03:14;98814.56;;;19.69;58.25
50710;BME280;37033;49.994;21.992;2023-07-24T00:05:44;98812.16;;;19.68;58.12
50710;BME280;37033;49.994;21.992;2023-07-24T00:08:15;98811.27;;;19.68;58.47
50710;BME280;37033;49.994;21.992;2023-07-24T00:10:45;98813.06;;;19.68;58.38
50710;BME280;37033;49.994;21.992;2023-07-24T00:13:16;98811.30;;;19.67;58.66
50710;BME280;37033;49.994;21.992;2023-07-24T00:15:47;98809.90;;;19.66;58.60
50710;BME280;37033;49.994;21.992;2023-07-24T00:18:17;98807.54;;;19.66;58.43
50710;BME280;37033;49.994;21.992;2023-07-24T00:20:48;98805.33;;;19.66;58.74
50710;BME280;37033;49.994;21.992;2023-07-24T00:23:19;98803.80;;;19.65;58.69
50710;BME280;37033;49.994;21.992;2023-07-24T00:25:49;98802.69;;;19.63;58.75
50710;BME280;37033;49.994;21.992;2023-07-24T00:28:20;98798.89;;;19.63;58.72
50710;BME280;37033;49.994;21.992;2023-07-24T00:30:50;98797.55;;;19.62;58.58
50710;BME280;37033;49.994;21.992;2023-07-24T00:33:21;98793.45;;;19.60;58.72
50710;BME280;37033;49.994;21.992;2023-07-24T00:35:51;98795.26;;;19.59;58.76
50710;BME280;37033;49.994;21.992;2023-07-24T00:38:25;98788.08;;;19.57;58.84
50710;BME280;37033;49.994;21.992;2023-07-24T00:40:55;98783.73;;;19.55;59.25
50710;BME280;37033;49.994;21.992;2023-07-24T00:43:26;98782.23;;;19.53;59.14
50710;BME280;37033;49.994;21.992;2023-07-24T00:45:58;98779.34;;;19.52;59.09
50710;BME280;37033;49.994;21.992;2023-07-24T00:48:28;98779.33;;;19.51;59.22
50710;BME280;37033;49.994;21.992;2023-07-24T00:50:59;98778.40;;;19.52;59.20
50710;BME280;37033;49.994;21.992;2023-07-24T00:53:30;98774.44;;;19.51;59.37
50710;BME280;37033;49.994;21.992;2023-07-24T00:56:00;98776.70;;;19.51;59.36
50710;BME280;37033;49.994;21.992;2023-07-24T00:58:31;98771.32;;;19.50;59.57
50710;BME280;37033;49.994;21.992;2023-07-24T01:01:04;98769.51;;;19.52;59.78
50710;BME280;37033;49.994;21.992;2023-07-24T01:03:35;98765.13;;;19.53;59.63
50710;BME280;37033;49.994;21.992;2023-07-24T01:06:07;98766.36;;;19.54;59.79
50710;BME280;37033;49.994;21.992;2023-07-24T01:08:37;98760.86;;;19.54;59.89
50710;BME280;37033;49.994;21.992;2023-07-24T01:11:14;98758.27;;;19.54;59.70
50710;BME280;37033;49.994;21.992;2023-07-24T01:13:51;98757.88;;;19.52;59.91
50710;BME280;37033;49.994;21.992;2023-07-24T01:16:25;98755.73;;;19.52;59.80
50710;BME280;37033;49.994;21.992;2023-07-24T01:18:57;98759.95;;;19.53;60.00
50710;BME280;37033;49.994;21.992;2023-07-24T01:21:38;98757.70;;;19.52;59.92
50710;BME280;37033;49.994;21.992;2023-07-24T01:24:19;98763.96;;;19.51;60.01
50710;BME280;37033;49.994;21.992;2023-07-24T01:26:54;98760.92;;;19.49;60.07
50710;BME280;37033;49.994;21.992;2023-07-24T01:29:25;98758.07;;;19.47;60.11
50710;BME280;37033;49.994;21.992;2023-07-24T01:31:55;98757.19;;;19.45;60.11
50710;BME280;37033;49.994;21.992;2023-07-24T01:34:26;98753.43;;;19.43;60.15
50710;BME280;37033;49.994;21.992;2023-07-24T01:36:57;98753.19;;;19.40;60.38
50710;BME280;37033;49.994;21.992;2023-07-24T01:39:28;98753.44;;;19.37;60.35
50710;BME280;37033;49.994;21.992;2023-07-24T01:41:59;98750.14;;;19.34;60.41
50710;BME280;37033;49.994;21.992;2023-07-24T01:44:29;98749.42;;;19.32;60.45
50710;BME280;37033;49.994;21.992;2023-07-24T01:47:00;98747.02;;;19.30;60.53
50710;BME280;37033;49.994;21.992;2023-07-24T01:49:30;98747.69;;;19.26;60.67
50710;BME280;37033;49.994;21.992;2023-07-24T01:52:01;98747.62;;;19.23;60.79
50710;BME280;37033;49.994;21.992;2023-07-24T01:54:32;98747.98;;;19.24;60.94
50710;BME280;37033;49.994;21.992;2023-07-24T01:57:03;98744.54;;;19.25;60.77
50710;BME280;37033;49.994;21.992;2023-07-24T01:59:33;98745.36;;;19.25;60.82
50710;BME280;37033;49.994;21.992;2023-07-24T02:02:04;98741.98;;;19.27;60.92
50710;BME280;37033;49.994;21.992;2023-07-24T02:04:35;98740.81;;;19.30;60.85
50710;BME280;37033;49.994;21.992;2023-07-24T02:07:07;98737.14;;;19.32;60.57
50710;BME280;37033;49.994;21.992;2023-07-24T02:09:38;98739.23;;;19.33;60.69
50710;BME280;37033;49.994;21.992;2023-07-24T02:12:09;98734.58;;;19.34;60.65
50710;BME280;37033;49.994;21.992;2023-07-24T02:14:39;98732.67;;;19.36;60.58
50710;BME280;37033;49.994;21.992;2023-07-24T02:17:10;98731.25;;;19.36;60.56
50710;BME280;37033;49.994;21.992;2023-07-24T02:19:40;98731.19;;;19.36;60.59
50710;BME280;37033;49.994;21.992;2023-07-24T02:22:11;98729.73;;;19.37;60.46
50710;BME280;37033;49.994;21.992;2023-07-24T02:24:42;98728.02;;;19.36;60.49
50710;BME280;37033;49.994;21.992;2023-07-24T02:27:24;98730.23;;;19.36;60.51
50710;BME280;37033;49.994;21.992;2023-07-24T02:29:55;98732.09;;;19.35;60.70
50710;BME280;37033;49.994;21.992;2023-07-24T02:32:26;98726.19;;;19.35;60.58
50710;BME280;37033;49.994;21.992;2023-07-24T02:34:56;98727.69;;;19.35;60.61
50710;BME280;37033;49.994;21.992;2023-07-24T02:37:27;98729.20;;;19.34;60.66
50710;BME280;37033;49.994;21.992;2023-07-24T02:39:57;98731.33;;;19.32;60.70
50710;BME280;37033;49.994;21.992;2023-07-24T02:42:28;98730.55;;;19.31;60.60
50710;BME280;37033;49.994;21.992;2023-07-24T02:44:58;98731.40;;;19.29;60.63
50710;BME280;37033;49.994;21.992;2023-07-24T02:47:29;98731.20;;;19.27;60.75
50710;BME280;37033;49.994;21.992;2023-07-24T02:50:00;98728.59;;;19.23;60.88
50710;BME280;37033;49.994;21.992;2023-07-24T02:52:30;98734.48;;;19.22;60.90
50710;BME280;37033;49.994;21.992;2023-07-24T02:55:01;98731.67;;;19.19;60.89
50710;BME280;37033;49.994;21.992;2023-07-24T02:57:31;98731.73;;;19.17;60.89
50710;BME280;37033;49.994;21.992;2023-07-24T03:00:02;98731.02;;;19.14;61.15
50710;BME280;37033;49.994;21.992;2023-07-24T03:02:33;98729.10;;;19.12;61.32
50710;BME280;37033;49.994;21.992;2023-07-24T03:05:04;98726.14;;;19.11;61.27
50710;BME280;37033;49.994;21.992;2023-07-24T03:07:35;98730.67;;;19.10;61.31
50710;BME280;37033;49.994;21.992;2023-07-24T03:10:06;98727.54;;;19.10;61.38
50710;BME280;37033;49.994;21.992;2023-07-24T03:12:38;98723.71;;;19.11;61.65
50710;BME280;37033;49.994;21.992;2023-07-24T03:15:09;98723.45;;;19.12;61.54
50710;BME280;37033;49.994;21.992;2023-07-24T03:17:40;98722.29;;;19.16;61.75
50710;BME280;37033;49.994;21.992;2023-07-24T03:20:16;98722.33;;;19.21;61.66
50710;BME280;37033;49.994;21.992;2023-07-24T03:22:47;98723.70;;;19.27;61.56
50710;BME280;37033;49.994;21.992;2023-07-24T03:25:17;98718.89;;;19.34;61.51
50710;BME280;37033;49.994;21.992;2023-07-24T03:27:48;98719.96;;;19.41;61.48
50710;BME280;37033;49.994;21.992;2023-07-24T03:30:19;98717.22;;;19.49;61.38
50710;BME280;37033;49.994;21.992;2023-07-24T03:32:49;98713.39;;;19.56;61.33
50710;BME280;37033;49.994;21.992;2023-07-24T03:35:20;98708.65;;;19.62;61.27
50710;BME280;37033;49.994;21.992;2023-07-24T03:37:51;98711.65;;;19.67;61.24
50710;BME280;37033;49.994;21.992;2023-07-24T03:40:21;98711.78;;;19.71;61.06
50710;BME280;37033;49.994;21.992;2023-07-24T03:42:52;98709.41;;;19.76;61.04
50710;BME280;37033;49.994;21.992;2023-07-24T03:45:23;98710.63;;;19.79;60.93
50710;BME280;37033;49.994;21.992;2023-07-24T03:47:53;98710.77;;;19.82;60.93
50710;BME280;37033;49.994;21.992;2023-07-24T03:50:24;98708.73;;;19.87;60.85
50710;BME280;37033;49.994;21.992;2023-07-24T03:52:54;98702.04;;;19.92;60.76
50710;BME280;37033;49.994;21.992;2023-07-24T03:55:25;98699.52;;;19.98;60.74
50710;BME280;37033;49.994;21.992;2023-07-24T03:57:56;98697.73;;;20.03;60.69
50710;BME280;37033;49.994;21.992;2023-07-24T04:00:26;98699.09;;;20.10;60.60
50710;BME280;37033;49.994;21.992;2023-07-24T04:02:57;98696.89;;;20.17;60.64
50710;BME280;37033;49.994;21.992;2023-07-24T04:05:28;98701.33;;;20.24;60.45
50710;BME280;37033;49.994;21.992;2023-07-24T04:07:58;98701.65;;;20.31;60.43
50710;BME280;37033;49.994;21.992;2023-07-24T04:10:29;98703.19;;;20.39;60.22
50710;BME280;37033;49.994;21.992;2023-07-24T04:13:00;98700.67;;;20.46;60.15
50710;BME280;37033;49.994;21.992;2023-07-24T04:15:30;98699.76;;;20.52;60.14
50710;BME280;37033;49.994;21.992;2023-07-24T04:18:01;98701.13;;;20.58;59.98
50710;BME280;37033;49.994;21.992;2023-07-24T04:20:32;98706.69;;;20.63;59.87
50710;BME280;37033;49.994;21.992;2023-07-24T04:23:02;98709.27;;;20.66;59.86
50710;BME280;37033;49.994;21.992;2023-07-24T04:25:33;98708.71;;;20.69;59.72
50710;BME280;37033;49.994;21.992;2023-07-24T04:28:04;98708.17;;;20.73;59.58
50710;BME280;37033;49.994;21.992;2023-07-24T04:30:35;98707.90;;;20.76;59.53
50710;BME280;37033;49.994;21.992;2023-07-24T04:33:05;98709.95;;;20.79;59.54
50710;BME280;37033;49.994;21.992;2023-07-24T04:35:36;98705.86;;;20.83;59.69
50710;BME280;37033;49.994;21.992;2023-07-24T04:38:07;98709.39;;;20.86;59.61
50710;BME280;37033;49.994;21.992;2023-07-24T04:40:37;98708.61;;;20.90;59.40
50710;BME280;37033;49.994;21.992;2023-07-24T04:43:08;98704.77;;;20.94;59.40
50710;BME280;37033;49.994;21.992;2023-07-24T04:45:39;98706.71;;;21.01;59.33
50710;BME280;37033;49.994;21.992;2023-07-24T04:48:09;98709.63;;;21.10;59.34
50710;BME280;37033;49.994;21.992;2023-07-24T04:50:40;98708.63;;;21.21;59.30
50710;BME280;37033;49.994;21.992;2023-07-24T04:53:10;98709.34;;;21.33;59.24
50710;BME280;37033;49.994;21.992;2023-07-24T04:55:41;98706.90;;;21.41;58.89
50710;BME280;37033;49.994;21.992;2023-07-24T04:58:12;98707.02;;;21.50;58.84
50710;BME280;37033;49.994;21.992;2023-07-24T05:00:42;98716.80;;;21.59;58.86
50710;BME280;37033;49.994;21.992;2023-07-24T05:03:13;98717.48;;;21.68;58.66
50710;BME280;37033;49.994;21.992;2023-07-24T05:05:49;98716.83;;;21.77;58.51
50710;BME280;37033;49.994;21.992;2023-07-24T05:08:24;98717.73;;;21.87;58.29
50710;BME280;37033;49.994;21.992;2023-07-24T05:10:57;98714.85;;;21.96;58.28
50710;BME280;37033;49.994;21.992;2023-07-24T05:13:27;98714.11;;;22.07;58.15
50710;BME280;37033;49.994;21.992;2023-07-24T05:15:58;98712.13;;;22.17;58.04
50710;BME280;37033;49.994;21.992;2023-07-24T05:18:28;98719.16;;;22.26;57.81
50710;BME280;37033;49.994;21.992;2023-07-24T05:20:59;98718.70;;;22.35;57.62
50710;BME280;37033;49.994;21.992;2023-07-24T05:23:29;98713.44;;;22.40;57.26
50710;BME280;37033;49.994;21.992;2023-07-24T05:26:00;98713.56;;;22.45;57.21
50710;BME280;37033;49.994;21.992;2023-07-24T05:28:32;98717.77;;;22.52;57.17
50710;BME280;37033;49.994;21.992;2023-07-24T05:31:04;98720.75;;;22.59;57.17
50710;BME280;37033;49.994;21.992;2023-07-24T05:33:35;98720.40;;;22.67;57.04
50710;BME280;37033;49.994;21.992;2023-07-24T05:36:06;98716.59;;;22.75;56.86
50710;BME280;37033;49.994;21.992;2023-07-24T05:38:36;98718.59;;;22.81;56.59
50710;BME280;37033;49.994;21.992;2023-07-24T05:41:07;98713.96;;;22.84;56.56
50710;BME280;37033;49.994;21.992;2023-07-24T05:43:37;98713.52;;;22.86;56.41
50710;BME280;37033;49.994;21.992;2023-07-24T05:46:08;98710.66;;;22.89;56.40
50710;BME280;37033;49.994;21.992;2023-07-24T05:48:39;98712.77;;;22.90;55.99
50710;BME280;37033;49.994;21.992;2023-07-24T05:51:09;98708.42;;;22.88;55.82
50710;BME280;37033;49.994;21.992;2023-07-24T05:53:40;98708.99;;;22.86;55.87
50710;BME280;37033;49.994;21.992;2023-07-24T05:56:10;98707.48;;;22.84;55.75
50710;BME280;37033;49.994;21.992;2023-07-24T05:58:41;98713.32;;;22.83;56.07
50710;BME280;37033;49.994;21.992;2023-07-24T06:01:11;98714.70;;;22.82;55.78
50710;BME280;37033;49.994;21.992;2023-07-24T06:03:42;98711.70;;;22.81;56.06
50710;BME280;37033;49.994;21.992;2023-07-24T06:06:13;98708.65;;;22.81;56.03
50710;BME280;37033;49.994;21.992;2023-07-24T06:08:43;98707.30;;;22.81;56.03
50710;BME280;37033;49.994;21.992;2023-07-24T06:11:14;98707.20;;;22.83;56.15
50710;BME280;37033;49.994;21.992;2023-07-24T06:13:45;98705.83;;;22.86;56.14
50710;BME280;37033;49.994;21.992;2023-07-24T06:16:15;98710.46;;;22.90;56.07
50710;BME280;37033;49.994;21.992;2023-07-24T06:18:46;98706.52;;;22.94;55.87
50710;BME280;37033;49.994;21.992;2023-07-24T06:21:17;98706.75;;;22.99;55.95
50710;BME280;37033;49.994;21.992;2023-07-24T06:23:47;98704.02;;;23.08;55.95
50710;BME280;37033;49.994;21.992;2023-07-24T06:26:18;98700.30;;;23.17;55.84
50710;BME280;37033;49.994;21.992;2023-07-24T06:28:49;98696.63;;;23.27;55.92
50710;BME280;37033;49.994;21.992;2023-07-24T06:31:19;98694.36;;;23.35;55.86
50710;BME280;37033;49.994;21.992;2023-07-24T06:33:50;98689.08;;;23.45;55.74
50710;BME280;37033;49.994;21.992;2023-07-24T06:36:20;98689.42;;;23.54;55.85
50710;BME280;37033;49.994;21.992;2023-07-24T06:38:51;98687.69;;;23.63;55.73
50710;BME280;37033;49.994;21.992;2023-07-24T06:41:22;98678.70;;;23.74;55.68
50710;BME280;37033;49.994;21.992;2023-07-24T06:43:52;98678.19;;;23.87;55.56
50710;BME280;37033;49.994;21.992;2023-07-24T06:46:23;98672.65;;;23.98;55.15
50710;BME280;37033;49.994;21.992;2023-07-24T06:48:54;98681.16;;;24.06;55.21
50710;BME280;37033;49.994;21.992;2023-07-24T06:51:24;98679.55;;;24.18;55.02
50710;BME280;37033;49.994;21.992;2023-07-24T06:53:55;98681.23;;;24.29;54.74
50710;BME280;37033;49.994;21.992;2023-07-24T06:56:25;98677.57;;;24.44;54.54
50710;BME280;37033;49.994;21.992;2023-07-24T06:58:56;98677.81;;;24.60;54.38
50710;BME280;37033;49.994;21.992;2023-07-24T07:01:27;98671.91;;;24.70;54.04
50710;BME280;37033;49.994;21.992;2023-07-24T07:03:57;98677.45;;;24.78;53.79
50710;BME280;37033;49.994;21.992;2023-07-24T07:06:28;98678.05;;;24.79;53.35
50710;BME280;37033;49.994;21.992;2023-07-24T07:08:58;98676.94;;;24.79;53.61
50710;BME280;37033;49.994;21.992;2023-07-24T07:11:29;98675.39;;;24.84;53.52
50710;BME280;37033;49.994;21.992;2023-07-24T07:13:59;98680.20;;;24.85;53.43
50710;BME280;37033;49.994;21.992;2023-07-24T07:16:30;98677.77;;;24.81;53.13
50710;BME280;37033;49.994;21.992;2023-07-24T07:19:01;98679.19;;;24.77;53.29
50710;BME280;37033;49.994;21.992;2023-07-24T07:21:32;98683.38;;;24.77;53.32
50710;BME280;37033;49.994;21.992;2023-07-24T07:24:02;98682.38;;;24.75;53.06
50710;BME280;37033;49.994;21.992;2023-07-24T07:26:33;98681.44;;;24.73;53.07
50710;BME280;37033;49.994;21.992;2023-07-24T07:29:04;98679.02;;;24.72;53.31
50710;BME280;37033;49.994;21.992;2023-07-24T07:31:35;98671.50;;;24.72;53.55
50710;BME280;37033;49.994;21.992;2023-07-24T07:34:05;98678.78;;;24.72;53.37
50710;BME280;37033;49.994;21.992;2023-07-24T07:36:36;98669.64;;;24.71;53.29
50710;BME280;37033;49.994;21.992;2023-07-24T07:39:07;98662.85;;;24.75;53.36
50710;BME280;37033;49.994;21.992;2023-07-24T07:41:38;98662.79;;;24.84;53.20
50710;BME280;37033;49.994;21.992;2023-07-24T07:44:09;98672.52;;;25.01;53.45
50710;BME280;37033;49.994;21.992;2023-07-24T07:46:39;98676.55;;;25.26;53.29
50710;BME280;37033;49.994;21.992;2023-07-24T07:49:10;98682.29;;;25.47;52.77
50710;BME280;37033;49.994;21.992;2023-07-24T07:51:41;98684.30;;;25.58;52.54
50710;BME280;37033;49.994;21.992;2023-07-24T07:54:11;98678.67;;;25.65;52.43
50710;BME280;37033;49.994;21.992;2023-07-24T07:56:42;98681.65;;;25.72;52.26
50710;BME280;37033;49.994;21.992;2023-07-24T07:59:13;98684.08;;;25.77;51.57
50710;BME280;37033;49.994;21.992;2023-07-24T08:01:44;98681.84;;;25.77;51.46
50710;BME280;37033;49.994;21.992;2023-07-24T08:04:15;98678.79;;;25.76;51.46
50710;BME280;37033;49.994;21.992;2023-07-24T08:06:47;98679.38;;;25.74;51.59
50710;BME280;37033;49.994;21.992;2023-07-24T08:09:17;98674.34;;;25.73;51.41
50710;BME280;37033;49.994;21.992;2023-07-24T08:11:48;98677.45;;;25.70;51.51
50710;BME280;37033;49.994;21.992;2023-07-24T08:14:18;98671.86;;;25.63;51.34
50710;BME280;37033;49.994;21.992;2023-07-24T08:16:50;98674.64;;;25.59;51.44
50710;BME280;37033;49.994;21.992;2023-07-24T08:19:22;98672.54;;;25.61;51.67
50710;BME280;37033;49.994;21.992;2023-07-24T08:21:52;98666.79;;;25.64;51.56
50710;BME280;37033;49.994;21.992;2023-07-24T08:24:23;98670.81;;;25.66;51.76
50710;BME280;37033;49.994;21.992;2023-07-24T08:26:54;98671.88;;;25.67;51.54
50710;BME280;37033;49.994;21.992;2023-07-24T08:29:24;98670.86;;;25.71;51.66
50710;BME280;37033;49.994;21.992;2023-07-24T08:31:55;98672.77;;;25.77;51.73
50710;BME280;37033;49.994;21.992;2023-07-24T08:34:25;98673.30;;;25.83;51.70
50710;BME280;37033;49.994;21.992;2023-07-24T08:36:56;98671.31;;;25.98;51.93
50710;BME280;37033;49.994;21.992;2023-07-24T08:39:27;98675.49;;;26.25;52.33
50710;BME280;37033;49.994;21.992;2023-07-24T08:41:57;98666.66;;;26.50;51.80
50710;BME280;37033;49.994;21.992;2023-07-24T08:44:30;98667.55;;;26.73;51.09
50710;BME280;37033;49.994;21.992;2023-07-24T08:47:01;98664.02;;;26.92;49.81
50710;BME280;37033;49.994;21.992;2023-07-24T08:49:33;98665.05;;;26.96;49.21
50710;BME280;37033;49.994;21.992;2023-07-24T08:52:06;98665.27;;;26.87;48.70
50710;BME280;37033;49.994;21.992;2023-07-24T08:54:38;98664.73;;;26.84;49.26
50710;BME280;37033;49.994;21.992;2023-07-24T08:57:09;98667.31;;;26.94;49.06
50710;BME280;37033;49.994;21.992;2023-07-24T08:59:41;98667.80;;;27.06;48.96
50710;BME280;37033;49.994;21.992;2023-07-24T09:02:12;98670.82;;;27.18;48.72
50710;BME280;37033;49.994;21.992;2023-07-24T09:04:42;98674.97;;;27.35;48.34
50710;BME280;37033;49.994;21.992;2023-07-24T09:07:13;98682.52;;;27.47;47.91
50710;BME280;37033;49.994;21.992;2023-07-24T09:09:44;98684.07;;;27.59;47.88
50710;BME280;37033;49.994;21.992;2023-07-24T09:12:16;98677.16;;;27.70;47.60
50710;BME280;37033;49.994;21.992;2023-07-24T09:14:46;98672.17;;;27.82;47.89
50710;BME280;37033;49.994;21.992;2023-07-24T09:17:17;98661.75;;;27.97;47.84
50710;BME280;37033;49.994;21.992;2023-07-24T09:19:56;98657.23;;;28.15;47.75
50710;BME280;37033;49.994;21.992;2023-07-24T09:22:27;98653.89;;;28.28;47.22
50710;BME280;37033;49.994;21.992;2023-07-24T09:24:59;98658.98;;;28.39;47.33
50710;BME280;37033;49.994;21.992;2023-07-24T09:27:32;98654.43;;;28.55;46.85
50710;BME280;37033;49.994;21.992;2023-07-24T09:30:11;98649.96;;;28.62;46.21
50710;BME280;37033;49.994;21.992;2023-07-24T09:32:42;98640.61;;;28.62;46.38
50710;BME280;37033;49.994;21.992;2023-07-24T09:35:19;98633.50;;;28.75;46.62
50710;BME280;37033;49.994;21.992;2023-07-24T09:38:03;98629.97;;;28.96;46.32
50710;BME280;37033;49.994;21.992;2023-07-24T09:40:41;98627.10;;;29.11;46.07
50710;BME280;37033;49.994;21.992;2023-07-24T09:43:22;98626.76;;;29.24;45.96
50710;BME280;37033;49.994;21.992;2023-07-24T09:45:54;98623.20;;;29.37;45.94
50710;BME280;37033;49.994;21.992;2023-07-24T09:48:26;98615.70;;;29.60;45.92
50710;BME280;37033;49.994;21.992;2023-07-24T09:50:59;98611.52;;;29.74;45.33
50710;BME280;37033;49.994;21.992;2023-07-24T09:53:33;98610.27;;;29.79;45.10
50710;BME280;37033;49.994;21.992;2023-07-24T09:56:08;98606.83;;;29.89;45.66
50710;BME280;37033;49.994;21.992;2023-07-24T09:58:40;98604.80;;;30.15;45.70
50710;BME280;37033;49.994;21.992;2023-07-24T10:01:11;98600.44;;;30.35;45.09
50710;BME280;37033;49.994;21.992;2023-07-24T10:03:46;98592.81;;;30.47;44.09
50710;BME280;37033;49.994;21.992;2023-07-24T10:06:18;98598.92;;;30.53;44.33
50710;BME280;37033;49.994;21.992;2023-07-24T10:08:49;98595.58;;;30.61;44.18
50710;BME280;37033;49.994;21.992;2023-07-24T10:11:20;98585.89;;;30.66;44.12
50710;BME280;37033;49.994;21.992;2023-07-24T10:13:52;98580.86;;;30.75;44.15
50710;BME280;37033;49.994;21.992;2023-07-24T10:16:23;98586.42;;;30.85;43.39
50710;BME280;37033;49.994;21.992;2023-07-24T10:18:53;98590.59;;;30.86;42.75
50710;BME280;37033;49.994;21.992;2023-07-24T10:21:28;98579.17;;;30.92;41.30
50710;BME280;37033;49.994;21.992;2023-07-24T10:24:01;98581.35;;;30.95;41.59
50710;BME280;37033;49.994;21.992;2023-07-24T10:26:33;98575.41;;;31.00;40.74
50710;BME280;37033;49.994;21.992;2023-07-24T10:29:05;98561.87;;;31.00;40.52
50710;BME280;37033;49.994;21.992;2023-07-24T10:31:36;98550.55;;;31.02;40.97
50710;BME280;37033;49.994;21.992;2023-07-24T10:34:07;98551.61;;;31.17;40.74
50710;BME280;37033;49.994;21.992;2023-07-24T10:36:38;98550.65;;;31.26;40.77
50710;BME280;37033;49.994;21.992;2023-07-24T10:39:16;98548.89;;;31.27;40.49
50710;BME280;37033;49.994;21.992;2023-07-24T10:41:48;98550.65;;;31.27;40.52
50710;BME280;37033;49.994;21.992;2023-07-24T10:44:18;98551.77;;;31.35;40.81
50710;BME280;37033;49.994;21.992;2023-07-24T10:47:00;98560.85;;;31.48;40.48
50710;BME280;37033;49.994;21.992;2023-07-24T10:49:31;98564.31;;;31.47;39.77
50710;BME280;37033;49.994;21.992;2023-07-24T10:52:02;98556.77;;;31.50;39.73
50710;BME280;37033;49.994;21.992;2023-07-24T10:54:32;98551.39;;;31.53;40.29
50710;BME280;37033;49.994;21.992;2023-07-24T10:57:04;98545.42;;;31.65;40.37
50710;BME280;37033;49.994;21.992;2023-07-24T10:59:39;98532.63;;;31.79;40.00
50710;BME280;37033;49.994;21.992;2023-07-24T11:02:10;98528.05;;;31.84;39.94
50710;BME280;37033;49.994;21.992;2023-07-24T11:04:41;98520.55;;;31.94;39.89
50710;BME280;37033;49.994;21.992;2023-07-24T11:07:11;98519.34;;;32.03;40.54
50710;BME280;37033;49.994;21.992;2023-07-24T11:09:42;98530.17;;;32.06;39.85
50710;BME280;37033;49.994;21.992;2023-07-24T11:12:15;98536.04;;;32.04;39.21
50710;BME280;37033;49.994;21.992;2023-07-24T11:14:50;98537.63;;;32.10;39.50
50710;BME280;37033;49.994;21.992;2023-07-24T11:17:32;98539.63;;;32.31;39.63
50710;BME280;37033;49.994;21.992;2023-07-24T11:20:10;98541.61;;;32.50;38.98
50710;BME280;37033;49.994;21.992;2023-07-24T11:22:41;98545.73;;;32.47;38.46
50710;BME280;37033;49.994;21.992;2023-07-24T11:25:12;98542.34;;;32.35;38.74
50710;BME280;37033;49.994;21.992;2023-07-24T11:27:44;98538.05;;;32.24;39.08
50710;BME280;37033;49.994;21.992;2023-07-24T11:30:20;98524.26;;;32.17;39.31
50710;BME280;37033;49.994;21.992;2023-07-24T11:32:51;98526.67;;;32.17;39.45
50710;BME280;37033;49.994;21.992;2023-07-24T11:35:22;98520.68;;;32.24;39.21
50710;BME280;37033;49.994;21.992;2023-07-24T11:37:54;98519.89;;;32.40;39.06
50710;BME280;37033;49.994;21.992;2023-07-24T11:40:33;98522.63;;;32.54;38.98
50710;BME280;37033;49.994;21.992;2023-07-24T11:43:04;98528.32;;;32.75;39.04
50710;BME280;37033;49.994;21.992;2023-07-24T11:45:42;98527.67;;;32.85;38.82
50710;BME280;37033;49.994;21.992;2023-07-24T11:48:14;98525.80;;;33.02;39.12
50710;BME280;37033;49.994;21.992;2023-07-24T11:50:45;98522.73;;;33.14;38.21
50710;BME280;37033;49.994;21.992;2023-07-24T11:53:24;98514.33;;;33.09;38.41
50710;BME280;37033;49.994;21.992;2023-07-24T11:55:56;98519.42;;;33.04;38.05
50710;BME280;37033;49.994;21.992;2023-07-24T11:58:28;98517.14;;;32.86;38.36
50710;BME280;37033;49.994;21.992;2023-07-24T12:00:59;98509.80;;;32.77;38.60
50710;BME280;37033;49.994;21.992;2023-07-24T12:03:30;98512.74;;;32.82;38.67
50710;BME280;37033;49.994;21.992;2023-07-24T12:06:01;98506.00;;;32.91;38.79
50710;BME280;37033;49.994;21.992;2023-07-24T12:08:34;98510.66;;;32.92;38.52
50710;BME280;37033;49.994;21.992;2023-07-24T12:11:15;98505.73;;;32.85;38.41
50710;BME280;37033;49.994;21.992;2023-07-24T12:13:45;98505.45;;;32.90;38.13
50710;BME280;37033;49.994;21.992;2023-07-24T12:16:16;98504.15;;;32.80;38.01
50710;BME280;37033;49.994;21.992;2023-07-24T12:18:47;98495.20;;;32.61;38.09
50710;BME280;37033;49.994;21.992;2023-07-24T12:21:18;98487.30;;;32.47;38.17
50710;BME280;37033;49.994;21.992;2023-07-24T12:23:48;98481.61;;;32.31;38.72
50710;BME280;37033;49.994;21.992;2023-07-24T12:26:19;98486.80;;;32.21;39.00
50710;BME280;37033;49.994;21.992;2023-07-24T12:28:50;98484.89;;;32.19;39.26
50710;BME280;37033;49.994;21.992;2023-07-24T12:31:20;98477.14;;;32.06;39.76
50710;BME280;37033;49.994;21.992;2023-07-24T12:33:51;98464.81;;;32.02;40.36
50710;BME280;37033;49.994;21.992;2023-07-24T12:36:21;98465.85;;;32.03;40.31
50710;BME280;37033;49.994;21.992;2023-07-24T12:38:52;98459.77;;;31.93;40.57
50710;BME280;37033;49.994;21.992;2023-07-24T12:41:23;98454.08;;;31.85;40.86
50710;BME280;37033;49.994;21.992;2023-07-24T12:43:54;98451.54;;;31.80;41.08
50710;BME280;37033;49.994;21.992;2023-07-24T12:46:24;98450.18;;;31.78;41.13
50710;BME280;37033;49.994;21.992;2023-07-24T12:48:55;98447.95;;;31.72;41.32
50710;BME280;37033;49.994;21.992;2023-07-24T12:51:26;98449.52;;;31.59;41.63
50710;BME280;37033;49.994;21.992;2023-07-24T12:53:56;98443.69;;;31.48;42.13
50710;BME280;37033;49.994;21.992;2023-07-24T12:56:27;98443.38;;;31.47;42.54
50710;BME280;37033;49.994;21.992;2023-07-24T12:58:57;98441.13;;;31.50;42.92
50710;BME280;37033;49.994;21.992;2023-07-24T13:01:28;98438.08;;;31.71;43.60
50710;BME280;37033;49.994;21.992;2023-07-24T13:03:58;98425.52;;;32.02;43.55
50710;BME280;37033;49.994;21.992;2023-07-24T13:06:29;98422.56;;;32.29;42.68
50710;BME280;37033;49.994;21.992;2023-07-24T13:09:00;98412.04;;;32.42;42.40
50710;BME280;37033;49.994;21.992;2023-07-24T13:11:30;98408.65;;;32.56;42.69